Time;durP1;ratioP1;P1;durP2;ratioP2;P2;SDS_P1;SDS_P2;PMS_P1;PMS_P2;Temp;Humidity;BMP_temperature;BMP_pressure;BME280_temperature;BME280_humidity;BME280_pressure;Samples;Min_cycle;Max_cycle;Signal;HPM_P1;HPM_P2
2022/12/02 00:00:24;;;;;;;49.58;28.10;;;3.50;99.90;;;;;;5091520;28;20032;-67
2022/12/02 00:02:51;;;;;;;49.15;28.08;;;3.40;99.90;;;;;;5074227;28;20043;-67
2022/12/02 00:05:20;;;;;;;55.95;29.73;;;3.50;99.90;;;;;;5089825;28;20047;-67
2022/12/02 00:07:47;;;;;;;53.10;29.52;;;3.50;99.90;;;;;;5092262;28;20063;-67
2022/12/02 00:10:22;;;;;;;47.60;27.88;;;3.50;99.90;;;;;;5079224;28;20055;-68
2022/12/02 00:12:48;;;;;;;49.40;27.95;;;3.40;99.90;;;;;;5070653;28;20130;-67
2022/12/02 00:15:41;;;;;;;49.20;28.65;;;3.40;99.90;;;;;;5092769;28;20036;-67
2022/12/02 00:18:08;;;;;;;52.40;29.88;;;3.40;99.90;;;;;;5070111;28;20048;-67
2022/12/02 00:20:34;;;;;;;55.90;30.33;;;3.40;99.90;;;;;;5090961;28;20043;-67
2022/12/02 00:23:00;;;;;;;50.95;28.48;;;3.50;99.90;;;;;;5085746;28;20495;-67
2022/12/02 00:25:26;;;;;;;54.17;28.42;;;3.40;99.90;;;;;;5085348;28;20097;-67
2022/12/02 00:27:51;;;;;;;51.45;29.13;;;3.40;99.90;;;;;;5091787;28;20031;-67
2022/12/02 00:30:17;;;;;;;53.50;28.45;;;3.40;99.90;;;;;;5069425;28;20037;-67
2022/12/02 00:32:43;;;;;;;51.33;28.30;;;3.40;99.90;;;;;;5073358;28;20028;-67
2022/12/02 00:35:09;;;;;;;55.10;29.77;;;3.40;99.90;;;;;;5087016;28;20050;-67
2022/12/02 00:37:34;;;;;;;51.45;27.17;;;3.40;99.90;;;;;;5094282;28;20032;-67
2022/12/02 00:40:00;;;;;;;51.65;29.95;;;3.40;99.90;;;;;;5089235;28;20056;-67
2022/12/02 00:42:26;;;;;;;48.33;28.20;;;3.40;99.90;;;;;;5090732;28;20419;-67
2022/12/02 00:47:35;;;;;;;50.72;27.75;;;3.40;99.90;;;;;;5093411;28;20137;-67
2022/12/02 00:50:01;;;;;;;51.80;27.73;;;3.30;99.90;;;;;;5087239;28;20075;-67
2022/12/02 00:52:27;;;;;;;50.20;29.42;;;3.40;99.90;;;;;;5092757;28;20048;-67
2022/12/02 00:54:52;;;;;;;54.80;29.77;;;3.30;99.90;;;;;;5091348;28;20799;-68
2022/12/02 00:57:18;;;;;;;51.83;28.63;;;3.30;99.90;;;;;;5088970;28;20044;-67
2022/12/02 00:59:44;;;;;;;52.60;28.30;;;3.40;99.90;;;;;;5091164;28;20535;-68
2022/12/02 01:02:09;;;;;;;51.38;29.08;;;3.30;99.90;;;;;;5092671;28;20044;-67
2022/12/02 01:04:35;;;;;;;54.95;29.80;;;3.40;99.90;;;;;;5088405;28;20468;-67
2022/12/02 01:07:01;;;;;;;51.05;28.52;;;3.30;99.90;;;;;;5091100;28;20040;-67
2022/12/02 01:09:27;;;;;;;56.53;29.80;;;3.40;99.90;;;;;;5090699;28;20634;-67
2022/12/02 01:11:52;;;;;;;54.25;29.48;;;3.30;99.90;;;;;;5092542;28;20036;-67
2022/12/02 01:14:18;;;;;;;50.28;28.95;;;3.30;99.90;;;;;;5089664;28;20040;-67
2022/12/02 01:16:44;;;;;;;53.65;30.60;;;3.30;99.90;;;;;;5071684;28;20060;-67
2022/12/02 01:19:09;;;;;;;51.20;30.95;;;3.30;99.90;;;;;;5069332;28;20216;-67
2022/12/02 01:21:35;;;;;;;47.97;30.38;;;3.30;99.90;;;;;;5091359;28;20074;-67
2022/12/02 01:24:01;;;;;;;54.85;30.52;;;3.30;99.90;;;;;;5090199;28;20032;-68
2022/12/02 01:26:26;;;;;;;48.55;28.52;;;3.30;99.90;;;;;;5069625;28;20051;-68
2022/12/02 01:28:52;;;;;;;53.00;29.40;;;3.30;99.90;;;;;;5088163;28;20472;-67
2022/12/02 01:31:17;;;;;;;48.45;29.13;;;3.30;99.90;;;;;;5089353;28;20126;-67
2022/12/02 01:33:43;;;;;;;49.58;28.52;;;3.30;99.90;;;;;;5090683;28;20617;-67
2022/12/02 01:36:09;;;;;;;50.47;27.77;;;3.20;99.90;;;;;;5091379;28;20066;-67
2022/12/02 01:38:35;;;;;;;45.85;26.33;;;3.20;99.90;;;;;;5092254;28;20072;-67
2022/12/02 01:41:00;;;;;;;42.42;25.08;;;3.20;99.90;;;;;;5088048;28;20075;-67
2022/12/02 01:43:27;;;;;;;49.08;27.75;;;3.20;99.90;;;;;;5092011;28;20036;-67
2022/12/02 01:45:53;;;;;;;46.35;26.45;;;3.20;99.90;;;;;;5074266;28;20104;-67
2022/12/02 01:48:19;;;;;;;45.67;25.95;;;3.30;99.90;;;;;;5095813;28;20566;-68
2022/12/02 01:50:46;;;;;;;44.95;25.50;;;3.20;99.90;;;;;;5088797;28;20047;-67
2022/12/02 01:53:12;;;;;;;44.47;26.13;;;3.20;99.90;;;;;;5091703;28;20036;-67
2022/12/02 01:55:38;;;;;;;47.85;28.20;;;3.20;99.90;;;;;;5082672;28;20040;-67
2022/12/02 01:58:04;;;;;;;43.45;24.98;;;3.20;99.90;;;;;;5091526;28;20024;-68
2022/12/02 02:00:30;;;;;;;44.42;25.55;;;3.20;99.90;;;;;;5090819;28;20330;-67
2022/12/02 02:03:03;;;;;;;44.33;25.83;;;3.10;99.90;;;;;;5091293;28;20036;-67
2022/12/02 02:05:33;;;;;;;45.33;26.60;;;3.10;99.90;;;;;;5072077;28;20047;-68
2022/12/02 02:08:05;;;;;;;49.67;26.88;;;3.10;99.90;;;;;;5090003;28;20050;-68
2022/12/02 02:10:32;;;;;;;43.70;25.10;;;3.10;99.90;;;;;;5085650;28;20036;-68
2022/12/02 02:12:58;;;;;;;45.33;25.17;;;3.10;99.90;;;;;;5088686;28;20032;-66
2022/12/02 02:15:24;;;;;;;39.25;23.23;;;3.10;99.90;;;;;;5088110;28;20082;-65
2022/12/02 02:17:50;;;;;;;37.40;21.35;;;3.10;99.90;;;;;;5088871;28;20487;-68
2022/12/02 02:20:19;;;;;;;37.45;20.85;;;3.10;99.90;;;;;;5090358;28;20036;-68
2022/12/02 02:22:59;;;;;;;35.67;20.70;;;3.10;99.90;;;;;;5083721;28;20349;-68
2022/12/02 02:25:25;;;;;;;34.75;20.08;;;3.10;99.90;;;;;;5066218;28;20041;-68
2022/12/02 02:27:57;;;;;;;31.02;19.13;;;3.10;99.90;;;;;;5071303;28;20048;-67
2022/12/02 02:30:23;;;;;;;35.47;19.50;;;3.10;99.90;;;;;;5087033;28;20133;-68
2022/12/02 02:32:50;;;;;;;31.77;18.10;;;3.10;99.90;;;;;;5069644;28;20062;-68
2022/12/02 02:35:17;;;;;;;30.23;17.00;;;3.10;99.90;;;;;;5086442;28;20062;-68
2022/12/02 02:37:43;;;;;;;30.08;17.55;;;3.00;99.90;;;;;;5091562;28;20038;-68
2022/12/02 02:40:10;;;;;;;33.55;18.77;;;3.00;99.90;;;;;;5042683;28;20045;-68
2022/12/02 02:42:37;;;;;;;34.60;18.55;;;3.00;99.90;;;;;;5045095;28;20571;-68
2022/12/02 02:45:03;;;;;;;36.47;20.85;;;3.00;99.90;;;;;;5045377;28;20049;-68
2022/12/02 02:47:29;;;;;;;34.10;20.48;;;3.00;99.90;;;;;;5042912;28;20068;-68
2022/12/02 02:49:55;;;;;;;30.92;18.67;;;3.00;99.90;;;;;;5041483;28;20080;-65
2022/12/02 02:52:20;;;;;;;31.83;19.80;;;3.00;99.90;;;;;;5047646;28;20724;-68
2022/12/02 02:54:46;;;;;;;34.20;20.08;;;2.90;99.90;;;;;;5022789;28;20041;-68
2022/12/02 02:57:12;;;;;;;29.67;18.65;;;2.90;99.90;;;;;;5043766;28;20409;-66
2022/12/02 02:59:41;;;;;;;27.73;18.85;;;2.90;99.90;;;;;;5042917;28;20045;-65
2022/12/02 03:02:09;;;;;;;31.67;20.98;;;2.90;99.90;;;;;;5041548;28;20558;-66
2022/12/02 03:04:35;;;;;;;28.73;19.40;;;2.90;99.90;;;;;;5043783;28;20512;-66
2022/12/02 03:07:01;;;;;;;32.47;20.38;;;2.90;99.90;;;;;;5047017;28;20443;-66
2022/12/02 03:09:27;;;;;;;30.45;18.70;;;2.90;99.90;;;;;;5041797;28;20045;-66
2022/12/02 03:11:55;;;;;;;31.27;18.65;;;2.90;99.90;;;;;;5048387;28;20098;-66
2022/12/02 03:14:22;;;;;;;27.85;18.20;;;2.90;99.90;;;;;;5044304;28;20457;-66
2022/12/02 03:16:49;;;;;;;32.75;19.50;;;2.90;99.90;;;;;;5052858;28;20400;-66
2022/12/02 03:19:16;;;;;;;28.85;16.33;;;2.80;99.90;;;;;;5043491;28;20380;-66
2022/12/02 03:21:42;;;;;;;30.20;19.58;;;2.80;99.90;;;;;;5048997;28;20506;-66
2022/12/02 03:24:08;;;;;;;32.85;19.08;;;2.80;99.90;;;;;;5043868;28;20120;-66
2022/12/02 03:26:35;;;;;;;29.85;18.80;;;2.70;99.90;;;;;;5045872;28;20045;-66
2022/12/02 03:29:03;;;;;;;29.98;18.52;;;2.80;99.90;;;;;;5045905;28;20107;-66
2022/12/02 03:31:29;;;;;;;28.00;18.40;;;2.80;99.90;;;;;;5048029;28;20041;-66
2022/12/02 03:33:56;;;;;;;28.92;18.65;;;2.80;99.90;;;;;;5049894;28;20069;-66
2022/12/02 03:36:22;;;;;;;26.60;17.88;;;2.70;99.90;;;;;;5047825;28;20045;-66
2022/12/02 03:38:48;;;;;;;28.75;17.23;;;2.70;99.90;;;;;;5044650;28;20060;-66
2022/12/02 03:41:15;;;;;;;27.33;17.83;;;2.70;99.90;;;;;;5040008;28;20060;-66
2022/12/02 03:43:41;;;;;;;26.20;17.13;;;2.70;99.90;;;;;;5052240;28;20112;-66
2022/12/02 03:46:07;;;;;;;24.83;15.98;;;2.70;99.90;;;;;;5047342;28;20049;-66
2022/12/02 03:48:38;;;;;;;28.48;16.05;;;2.70;99.90;;;;;;5048237;28;20037;-65
2022/12/02 03:51:04;;;;;;;28.20;16.90;;;2.70;99.90;;;;;;5044975;28;20052;-66
2022/12/02 03:53:30;;;;;;;28.17;15.88;;;2.60;99.90;;;;;;5045726;28;20703;-66
2022/12/02 03:55:56;;;;;;;27.65;16.90;;;2.70;99.90;;;;;;5044193;28;20106;-66
2022/12/02 03:58:45;;;;;;;27.75;16.45;;;2.60;99.90;;;;;;5047012;28;20033;-66
2022/12/02 04:01:11;;;;;;;28.27;17.48;;;2.60;99.90;;;;;;5043826;28;20041;-66
2022/12/02 04:03:37;;;;;;;26.85;17.33;;;2.60;99.90;;;;;;5044876;28;20165;-66
2022/12/02 04:06:03;;;;;;;30.33;17.15;;;2.50;99.90;;;;;;5040848;28;20183;-66
2022/12/02 04:08:28;;;;;;;26.80;16.75;;;2.60;99.90;;;;;;5045123;28;20045;-66
2022/12/02 04:10:54;;;;;;;29.83;17.35;;;2.50;99.90;;;;;;5045034;28;20341;-66
2022/12/02 04:13:20;;;;;;;29.33;16.33;;;2.50;99.90;;;;;;5048706;28;20037;-66
2022/12/02 04:15:46;;;;;;;31.58;17.90;;;2.50;99.90;;;;;;5041174;28;20033;-66
2022/12/02 04:18:11;;;;;;;34.13;18.55;;;2.50;99.90;;;;;;5047774;28;20037;-66
2022/12/02 04:20:37;;;;;;;41.03;20.30;;;2.50;99.90;;;;;;5041564;28;20519;-66
2022/12/02 04:23:03;;;;;;;36.63;18.73;;;2.50;99.90;;;;;;5041130;28;20056;-66
2022/12/02 04:25:28;;;;;;;35.80;19.25;;;2.50;99.90;;;;;;5041012;28;21145;-66
2022/12/02 04:27:54;;;;;;;35.60;18.80;;;2.50;99.90;;;;;;5049447;28;20033;-66
2022/12/02 04:30:20;;;;;;;34.58;19.88;;;2.50;99.90;;;;;;5047716;28;20109;-66
2022/12/02 04:32:45;;;;;;;38.08;20.50;;;2.50;99.90;;;;;;5042972;28;20045;-66
2022/12/02 04:35:11;;;;;;;35.03;19.73;;;2.50;99.90;;;;;;5045966;28;20107;-66
2022/12/02 04:37:37;;;;;;;37.83;20.00;;;2.50;99.90;;;;;;5045749;28;20041;-66
2022/12/02 04:40:03;;;;;;;40.80;20.00;;;2.50;99.90;;;;;;5042652;28;20140;-66
2022/12/02 04:42:29;;;;;;;40.67;21.13;;;2.50;99.90;;;;;;5045055;28;20072;-66
2022/12/02 04:44:55;;;;;;;39.65;21.27;;;2.50;99.90;;;;;;5046501;28;20552;-67
2022/12/02 04:47:20;;;;;;;38.75;22.25;;;2.40;99.90;;;;;;5046574;28;20045;-66
2022/12/02 04:49:46;;;;;;;38.58;21.27;;;2.40;99.90;;;;;;5045591;28;20080;-66
2022/12/02 04:52:12;;;;;;;39.38;21.65;;;2.40;99.90;;;;;;5046607;28;20037;-66
2022/12/02 04:54:37;;;;;;;39.42;21.25;;;2.40;99.90;;;;;;5046871;28;20075;-67
2022/12/02 04:57:03;;;;;;;40.13;21.52;;;2.40;99.90;;;;;;5045175;28;20083;-66
2022/12/02 04:59:28;;;;;;;37.95;21.80;;;2.40;99.90;;;;;;5047086;28;20033;-66
2022/12/02 05:01:54;;;;;;;41.60;23.50;;;2.40;99.90;;;;;;5045645;28;20583;-66
2022/12/02 05:04:20;;;;;;;38.47;21.50;;;2.50;99.90;;;;;;5046740;28;20425;-66
2022/12/02 05:06:45;;;;;;;44.42;24.08;;;2.40;99.90;;;;;;5047647;28;20128;-66
2022/12/02 05:09:11;;;;;;;43.95;22.60;;;2.40;99.90;;;;;;5042778;28;20111;-66
2022/12/02 05:11:37;;;;;;;40.30;22.83;;;2.40;99.90;;;;;;5045559;28;20064;-66
2022/12/02 05:14:02;;;;;;;37.60;22.50;;;2.40;99.90;;;;;;5043431;28;20443;-66
2022/12/02 05:16:28;;;;;;;41.05;23.27;;;2.40;99.90;;;;;;5043593;28;20127;-66
2022/12/02 05:18:54;;;;;;;39.75;22.90;;;2.40;99.90;;;;;;5043434;28;20097;-66
2022/12/02 05:21:19;;;;;;;44.67;24.02;;;2.30;99.90;;;;;;5046684;28;20056;-66
2022/12/02 05:23:45;;;;;;;38.15;22.23;;;2.30;99.90;;;;;;5041715;28;20045;-66
2022/12/02 05:26:11;;;;;;;42.42;23.60;;;2.30;99.90;;;;;;5043176;28;20354;-66
2022/12/02 05:28:37;;;;;;;44.30;23.77;;;2.30;99.90;;;;;;5044400;28;20056;-67
2022/12/02 05:31:02;;;;;;;45.17;24.60;;;2.30;99.90;;;;;;5044264;28;20048;-66
2022/12/02 05:33:28;;;;;;;44.10;24.15;;;2.30;99.90;;;;;;5043873;28;20502;-66
2022/12/02 05:35:54;;;;;;;46.50;24.52;;;2.30;99.90;;;;;;5024655;28;20045;-66
2022/12/02 05:38:20;;;;;;;44.67;24.73;;;2.30;99.90;;;;;;5043362;28;20505;-66
2022/12/02 05:40:46;;;;;;;43.53;24.75;;;2.20;99.90;;;;;;5087511;28;20470;-66
2022/12/02 05:43:20;;;;;;;49.83;26.05;;;2.20;99.90;;;;;;5086212;28;20028;-66
2022/12/02 05:45:46;;;;;;;47.53;24.52;;;2.20;99.90;;;;;;5069209;28;20047;-67
2022/12/02 05:48:14;;;;;;;44.22;24.92;;;2.20;99.90;;;;;;5092030;28;20028;-67
2022/12/02 05:50:41;;;;;;;48.83;25.98;;;2.20;99.90;;;;;;5090060;28;20507;-67
2022/12/02 05:53:27;;;;;;;44.05;24.10;;;2.20;99.90;;;;;;5089100;28;20043;-67
2022/12/02 05:55:54;;;;;;;45.85;25.88;;;2.10;99.90;;;;;;5070574;28;20040;-66
2022/12/02 05:58:20;;;;;;;49.78;24.85;;;2.10;99.90;;;;;;5072465;28;20179;-67
2022/12/02 06:00:58;;;;;;;46.95;25.90;;;2.10;99.90;;;;;;5084292;28;20360;-67
2022/12/02 06:03:24;;;;;;;52.47;25.75;;;2.10;99.90;;;;;;5066894;28;20471;-67
2022/12/02 06:05:52;;;;;;;52.90;26.35;;;2.10;99.90;;;;;;5073089;28;20040;-67
2022/12/02 06:08:22;;;;;;;53.92;28.42;;;2.10;99.90;;;;;;5067919;28;20131;-67
2022/12/02 06:10:54;;;;;;;54.60;27.90;;;2.10;99.90;;;;;;5069002;28;20201;-68
2022/12/02 06:13:24;;;;;;;52.83;26.83;;;2.10;99.90;;;;;;5082790;28;20032;-66
2022/12/02 06:15:50;;;;;;;55.45;28.00;;;2.10;99.90;;;;;;5085993;28;20058;-67
2022/12/02 06:18:26;;;;;;;55.78;27.30;;;2.10;99.90;;;;;;5068912;28;20051;-67
2022/12/02 06:20:56;;;;;;;56.78;27.25;;;2.10;99.90;;;;;;5084455;28;20040;-67
2022/12/02 06:23:24;;;;;;;54.63;27.10;;;2.10;99.90;;;;;;5086497;28;20131;-67
2022/12/02 06:25:52;;;;;;;56.13;27.77;;;2.10;99.90;;;;;;5064521;28;20468;-67
2022/12/02 06:28:25;;;;;;;54.40;28.00;;;2.10;99.90;;;;;;5067907;28;20051;-67
2022/12/02 06:30:55;;;;;;;57.72;26.42;;;2.10;99.90;;;;;;5079801;28;20047;-67
2022/12/02 06:33:27;;;;;;;60.65;29.05;;;2.10;99.90;;;;;;5088202;28;20468;-67
2022/12/02 06:35:54;;;;;;;56.95;27.55;;;2.00;99.90;;;;;;5089083;28;20024;-67
2022/12/02 06:38:31;;;;;;;58.80;28.92;;;2.10;99.90;;;;;;5089249;28;20044;-66
2022/12/02 06:41:10;;;;;;;58.55;28.40;;;2.00;99.90;;;;;;5082946;28;20105;-67
2022/12/02 06:43:36;;;;;;;59.08;28.80;;;2.10;99.90;;;;;;5088324;28;20044;-68
2022/12/02 06:46:06;;;;;;;61.15;29.73;;;2.00;99.90;;;;;;5069344;28;20074;-67
2022/12/02 06:48:38;;;;;;;53.35;27.20;;;2.10;99.90;;;;;;5088070;28;20044;-66
2022/12/02 06:51:15;;;;;;;57.75;28.00;;;2.10;99.90;;;;;;5066673;28;20220;-66
2022/12/02 06:53:41;;;;;;;57.35;28.63;;;2.10;99.90;;;;;;5044295;28;20058;-67
2022/12/02 06:56:13;;;;;;;59.80;29.80;;;2.10;99.90;;;;;;5065298;28;20031;-66
2022/12/02 06:59:00;;;;;;;57.30;28.48;;;2.10;99.90;;;;;;5084115;28;20094;-66
2022/12/02 07:01:32;;;;;;;60.45;30.10;;;2.10;99.90;;;;;;5067461;28;20047;-66
2022/12/02 07:04:12;;;;;;;59.78;28.00;;;2.10;99.90;;;;;;5063720;28;20036;-66
2022/12/02 07:06:41;;;;;;;56.35;29.23;;;2.10;99.90;;;;;;5065141;28;20032;-67
2022/12/02 07:09:19;;;;;;;57.35;28.67;;;2.20;99.90;;;;;;5084894;28;20507;-67
2022/12/02 07:11:50;;;;;;;56.50;29.40;;;2.20;99.90;;;;;;5085492;28;20097;-67
2022/12/02 07:14:27;;;;;;;59.45;29.80;;;2.20;99.90;;;;;;5068210;28;20048;-67
2022/12/02 07:16:55;;;;;;;66.18;32.00;;;2.20;99.90;;;;;;5083621;28;20044;-67
2022/12/02 07:19:38;;;;;;;58.15;30.73;;;2.20;99.90;;;;;;5071296;28;20036;-67
2022/12/02 07:22:21;;;;;;;59.78;28.67;;;2.20;99.90;;;;;;5056034;28;20039;-67
2022/12/02 07:25:08;;;;;;;60.60;29.52;;;2.20;99.90;;;;;;5086538;28;20036;-67
2022/12/02 07:27:40;;;;;;;62.67;29.27;;;2.20;99.90;;;;;;5089029;28;20380;-66
2022/12/02 07:30:25;;;;;;;64.90;30.65;;;2.20;99.90;;;;;;5069479;28;20048;-66
2022/12/02 07:32:51;;;;;;;;;;;2.30;99.90;;;;;;5088696;28;20043;-66
2022/12/02 07:35:17;;;;;;;56.80;28.13;;;2.20;99.90;;;;;;5069902;28;20030;-66
2022/12/02 07:37:43;;;;;;;62.35;29.75;;;2.20;99.90;;;;;;5088449;28;20044;-66
2022/12/02 07:40:11;;;;;;;61.67;29.52;;;2.20;99.90;;;;;;5087547;28;20400;-66
2022/12/02 07:42:36;;;;;;;58.50;29.80;;;2.30;99.90;;;;;;5088703;28;20040;-66
2022/12/02 07:45:03;;;;;;;64.13;31.02;;;2.30;99.90;;;;;;5088264;28;20051;-66
2022/12/02 07:47:30;;;;;;;61.80;29.40;;;2.30;99.90;;;;;;5085046;28;20044;-66
2022/12/02 07:49:57;;;;;;;68.00;31.88;;;2.40;99.90;;;;;;5088537;28;20184;-66
2022/12/02 07:52:23;;;;;;;66.85;31.38;;;2.30;99.90;;;;;;5069283;28;20387;-66
2022/12/02 07:54:49;;;;;;;60.85;30.00;;;2.30;99.90;;;;;;5088797;28;20348;-66
2022/12/02 07:57:15;;;;;;;72.00;32.55;;;2.40;99.90;;;;;;5071316;28;20044;-66
2022/12/02 07:59:41;;;;;;;71.53;33.78;;;2.40;99.90;;;;;;5088935;28;20032;-66
2022/12/02 08:02:06;;;;;;;69.35;33.58;;;2.30;99.90;;;;;;5072406;28;20040;-66
2022/12/02 08:04:32;;;;;;;68.07;31.75;;;2.40;99.90;;;;;;5097639;28;20115;-66
2022/12/02 08:06:58;;;;;;;66.75;32.92;;;2.30;99.90;;;;;;5072165;28;20119;-66
2022/12/02 08:09:23;;;;;;;65.97;31.08;;;2.40;99.90;;;;;;5097064;28;20471;-66
2022/12/02 08:11:49;;;;;;;59.67;31.02;;;2.40;99.90;;;;;;5090552;28;20036;-66
2022/12/02 08:14:15;;;;;;;62.30;30.10;;;2.40;99.90;;;;;;5079446;28;20044;-66
2022/12/02 08:16:40;;;;;;;54.33;30.10;;;2.40;99.90;;;;;;5073551;28;20036;-66
2022/12/02 08:19:06;;;;;;;59.20;28.38;;;2.40;99.90;;;;;;5094497;28;20078;-66
2022/12/02 08:21:32;;;;;;;51.30;27.17;;;2.50;99.90;;;;;;5071422;28;20060;-66
2022/12/02 08:23:58;;;;;;;56.00;28.00;;;2.50;99.90;;;;;;5073632;28;20035;-66
2022/12/02 08:26:24;;;;;;;49.60;24.75;;;2.50;99.90;;;;;;5088981;28;20071;-67
2022/12/02 08:28:50;;;;;;;55.95;27.65;;;2.50;99.90;;;;;;5094239;28;20098;-66
2022/12/02 08:31:15;;;;;;;54.38;28.50;;;2.60;99.90;;;;;;5073621;28;20084;-66
2022/12/02 08:33:41;;;;;;;58.03;28.88;;;2.60;99.90;;;;;;5090516;28;20040;-66
2022/12/02 08:36:07;;;;;;;51.78;27.52;;;2.60;99.90;;;;;;5074236;28;20067;-66
2022/12/02 08:38:33;;;;;;;57.20;29.30;;;2.60;99.90;;;;;;5086446;28;20090;-66
2022/12/02 08:40:59;;;;;;;53.17;26.15;;;2.60;99.90;;;;;;5092339;28;20067;-66
2022/12/02 08:43:25;;;;;;;56.42;27.25;;;2.60;99.90;;;;;;5090685;28;20035;-67
2022/12/02 08:45:50;;;;;;;55.05;28.35;;;2.60;99.90;;;;;;5072840;28;20079;-66
2022/12/02 08:48:16;;;;;;;54.05;26.98;;;2.60;99.90;;;;;;5090581;28;20051;-66
2022/12/02 08:50:42;;;;;;;52.45;26.70;;;2.60;99.90;;;;;;5091355;28;20067;-66
2022/12/02 08:53:08;;;;;;;54.17;28.23;;;2.60;99.90;;;;;;5090801;28;20044;-66
2022/12/02 08:55:34;;;;;;;59.45;28.38;;;2.60;99.90;;;;;;5090945;28;20036;-66
2022/12/02 08:57:59;;;;;;;57.33;28.33;;;2.60;99.90;;;;;;5088062;28;20036;-66
2022/12/02 09:00:25;;;;;;;59.72;27.20;;;2.60;99.90;;;;;;5091406;28;20435;-66
2022/12/02 09:02:51;;;;;;;51.45;26.50;;;2.60;99.90;;;;;;5071448;28;20044;-66
2022/12/02 09:05:17;;;;;;;54.83;25.48;;;2.60;99.90;;;;;;5093211;28;20063;-67
2022/12/02 09:07:46;;;;;;;63.08;27.67;;;2.60;99.90;;;;;;5068638;28;20032;-67
2022/12/02 09:10:13;;;;;;;61.95;29.70;;;2.60;99.90;;;;;;5049081;28;20045;-66
2022/12/02 09:12:38;;;;;;;60.67;28.85;;;2.60;99.90;;;;;;5089755;28;20035;-66
2022/12/02 09:15:05;;;;;;;58.45;28.60;;;2.50;99.90;;;;;;5071689;28;20579;-66
2022/12/02 09:17:30;;;;;;;52.83;24.88;;;2.60;99.90;;;;;;5070908;28;20036;-67
2022/12/02 09:19:56;;;;;;;58.95;28.98;;;2.60;99.90;;;;;;5073236;28;20108;-66
2022/12/02 09:22:22;;;;;;;59.15;29.58;;;2.60;99.90;;;;;;5089621;28;20032;-66
2022/12/02 09:24:47;;;;;;;64.82;29.83;;;2.60;99.90;;;;;;5089777;28;20070;-66
2022/12/02 09:27:14;;;;;;;68.65;29.08;;;2.60;99.90;;;;;;5091636;28;20059;-66
2022/12/02 09:29:39;;;;;;;67.03;30.63;;;2.70;99.90;;;;;;5087315;28;20040;-66
2022/12/02 09:32:05;;;;;;;62.03;30.20;;;2.60;99.90;;;;;;5086720;28;20043;-66
2022/12/02 09:34:31;;;;;;;64.20;30.25;;;2.70;99.90;;;;;;5088577;28;20044;-66
2022/12/02 09:36:56;;;;;;;67.93;29.95;;;2.70;99.90;;;;;;5069248;28;20368;-66
2022/12/02 09:39:22;;;;;;;61.50;29.58;;;2.70;99.90;;;;;;5070943;28;20052;-67
2022/12/02 09:41:48;;;;;;;62.92;29.40;;;2.70;99.90;;;;;;5090330;28;20229;-66
2022/12/02 09:44:14;;;;;;;58.28;25.92;;;2.80;99.90;;;;;;5092720;28;20115;-67
2022/12/02 09:46:39;;;;;;;52.78;26.02;;;2.80;99.90;;;;;;5090729;28;20050;-66
2022/12/02 09:49:05;;;;;;;49.03;26.33;;;2.80;99.90;;;;;;5087888;28;20090;-67
2022/12/02 09:51:32;;;;;;;58.25;27.55;;;2.80;99.90;;;;;;5088081;28;20028;-67
2022/12/02 09:53:59;;;;;;;57.63;26.20;;;2.80;99.90;;;;;;5091376;28;20097;-67
2022/12/02 09:56:25;;;;;;;55.78;27.90;;;2.80;99.90;;;;;;5089980;28;20091;-67
2022/12/02 09:58:53;;;;;;;56.25;28.10;;;2.80;99.90;;;;;;5071043;28;20476;-66
2022/12/02 10:01:19;;;;;;;55.75;28.52;;;2.80;99.90;;;;;;5086231;28;20551;-66
2022/12/02 10:03:48;;;;;;;55.30;27.27;;;2.80;99.90;;;;;;5072281;28;20044;-66
2022/12/02 10:06:25;;;;;;;59.60;28.80;;;2.80;99.90;;;;;;5087614;28;20043;-67
2022/12/02 10:08:54;;;;;;;56.80;27.92;;;2.80;99.90;;;;;;5094136;28;20542;-66
2022/12/02 10:11:26;;;;;;;60.58;28.48;;;2.70;99.90;;;;;;5072103;28;20393;-66
2022/12/02 10:13:53;;;;;;;61.92;27.17;;;2.80;99.90;;;;;;5071148;28;20040;-66
2022/12/02 10:16:19;;;;;;;58.72;28.10;;;2.80;99.90;;;;;;5089560;28;20040;-66
2022/12/02 10:18:46;;;;;;;67.90;28.92;;;2.80;99.90;;;;;;5090491;28;20098;-66
2022/12/02 10:21:11;;;;;;;67.05;30.38;;;2.80;99.90;;;;;;5055026;28;20127;-67
2022/12/02 10:24:06;;;;;;;70.60;31.35;;;2.80;99.90;;;;;;5090622;28;20163;-67
2022/12/02 10:26:46;;;;;;;69.80;31.02;;;2.80;99.90;;;;;;5065927;28;20109;-66
2022/12/02 10:29:24;;;;;;;69.85;30.63;;;2.70;99.90;;;;;;5097903;28;20089;-66
2022/12/02 10:32:20;;;;;;;69.00;30.33;;;2.70;99.90;;;;;;5089627;28;20040;-67
2022/12/02 10:35:02;;;;;;;67.45;29.80;;;2.70;99.90;;;;;;5090393;28;20068;-66
2022/12/02 10:37:28;;;;;;;58.67;27.33;;;2.60;99.90;;;;;;5067345;28;20484;-67
2022/12/02 10:40:14;;;;;;;54.97;26.88;;;2.60;99.90;;;;;;5069992;28;20635;-67
2022/12/02 10:42:39;;;;;;;63.97;26.40;;;2.70;99.90;;;;;;5066422;28;20559;-66
2022/12/02 10:45:14;;;;;;;56.35;27.15;;;2.60;99.90;;;;;;5090879;28;20040;-66
2022/12/02 10:47:40;;;;;;;58.97;26.23;;;2.70;99.90;;;;;;5085044;28;20048;-66
2022/12/02 10:50:23;;;;;;;56.60;23.85;;;2.60;99.90;;;;;;5087430;28;20044;-66
2022/12/02 10:52:58;;;;;;;52.78;24.05;;;2.60;99.90;;;;;;5067138;28;20403;-66
2022/12/02 10:55:26;;;;;;;48.45;24.13;;;2.70;99.90;;;;;;5088329;28;20055;-66
2022/12/02 10:57:52;;;;;;;50.88;24.95;;;2.60;99.90;;;;;;5066600;28;20033;-66
2022/12/02 11:00:24;;;;;;;54.60;25.27;;;2.70;99.90;;;;;;5090566;28;20467;-66
2022/12/02 11:02:53;;;;;;;52.25;24.65;;;2.70;99.90;;;;;;5071103;28;20119;-66
2022/12/02 11:05:30;;;;;;;53.05;24.92;;;2.60;99.90;;;;;;5070154;28;20052;-66
2022/12/02 11:08:15;;;;;;;51.50;25.95;;;2.70;99.90;;;;;;5087733;28;20126;-67
2022/12/02 11:10:41;;;;;;;;;;;2.60;99.90;;;;;;5071268;28;20416;-66
2022/12/02 11:13:49;;;;;;;47.75;24.48;;;2.60;99.90;;;;;;5065617;28;19920;-67
2022/12/02 11:16:45;;;;;;;48.30;23.88;;;2.70;99.90;;;;;;5088038;28;20082;-67
2022/12/02 11:19:44;;;;;;;46.33;23.85;;;2.70;99.90;;;;;;5067211;28;21165;-66
2022/12/02 11:22:48;;;;;;;50.58;24.05;;;2.70;99.90;;;;;;5063654;28;20067;-68
2022/12/02 11:25:42;;;;;;;51.70;25.35;;;2.70;99.90;;;;;;5085584;28;20043;-67
2022/12/02 11:28:35;;;;;;;57.40;26.60;;;2.70;99.90;;;;;;5085090;28;20407;-66
2022/12/02 11:31:09;;;;;;;58.53;28.85;;;2.80;99.90;;;;;;5092751;28;20094;-66
2022/12/02 11:33:47;;;;;;;58.67;29.35;;;2.80;99.90;;;;;;5092227;28;20629;-67
2022/12/02 11:36:21;;;;;;;56.88;29.83;;;2.80;99.90;;;;;;5072492;28;20155;-66
2022/12/02 11:39:02;;;;;;;48.35;24.38;;;2.80;99.90;;;;;;5088647;28;20468;-66
2022/12/02 11:41:48;;;;;;;60.38;28.92;;;2.80;99.90;;;;;;5095383;28;20047;-66
2022/12/02 11:44:24;;;;;;;61.38;29.50;;;2.80;99.90;;;;;;5088776;28;20040;-66
2022/12/02 11:46:56;;;;;;;59.80;31.08;;;2.80;99.90;;;;;;5075199;28;20043;-66
2022/12/02 11:49:26;;;;;;;61.60;32.10;;;2.80;99.90;;;;;;5090763;28;20499;-67
2022/12/02 11:52:00;;;;;;;66.05;31.33;;;2.80;99.90;;;;;;5093311;28;20502;-66
2022/12/02 11:54:26;;;;;;;64.00;32.95;;;2.80;99.90;;;;;;5086330;28;20109;-66
2022/12/02 11:56:53;;;;;;;63.78;32.05;;;2.70;99.90;;;;;;5094912;28;20135;-66
2022/12/02 11:59:28;;;;;;;61.63;31.60;;;2.70;99.90;;;;;;5091749;28;20071;-66
2022/12/02 12:02:14;;;;;;;61.47;31.33;;;2.70;99.90;;;;;;5092459;28;20036;-66
2022/12/02 12:04:41;;;;;;;67.63;34.03;;;2.80;99.90;;;;;;5089592;28;20053;-66
2022/12/02 12:07:07;;;;;;;58.92;31.63;;;2.80;99.90;;;;;;5076105;28;20044;-67
2022/12/02 12:09:33;;;;;;;69.10;35.65;;;2.70;99.90;;;;;;5089281;28;20047;-66
2022/12/02 12:12:18;;;;;;;71.95;35.08;;;2.70;99.90;;;;;;5072955;28;20036;-66
2022/12/02 12:15:02;;;;;;;68.63;35.33;;;2.70;99.90;;;;;;5087759;28;20043;-66
2022/12/02 12:17:46;;;;;;;69.43;35.10;;;2.70;99.90;;;;;;5094594;28;20044;-66
2022/12/02 12:20:14;;;;;;;71.68;36.05;;;2.70;99.90;;;;;;5089325;28;20040;-66
2022/12/02 12:22:40;;;;;;;75.30;38.83;;;2.70;99.90;;;;;;5090691;28;20040;-66
2022/12/02 12:25:32;;;;;;;68.55;36.80;;;2.70;99.90;;;;;;5089682;28;20040;-66
2022/12/02 12:27:58;;;;;;;70.10;37.22;;;2.70;99.90;;;;;;5072346;28;20435;-66
2022/12/02 12:30:24;;;;;;;70.13;36.83;;;2.70;99.90;;;;;;5091170;28;20052;-66
2022/12/02 12:32:49;;;;;;;65.63;37.13;;;2.70;99.90;;;;;;5090430;28;20051;-67
2022/12/02 12:35:15;;;;;;;74.28;36.90;;;2.80;99.90;;;;;;5092878;28;20047;-66
2022/12/02 12:37:41;;;;;;;74.93;39.47;;;2.70;99.90;;;;;;5085047;28;20396;-67
2022/12/02 12:40:07;;;;;;;68.97;37.20;;;2.70;99.90;;;;;;5070984;28;20132;-65
2022/12/02 12:42:32;;;;;;;68.75;36.67;;;2.70;99.90;;;;;;5069847;28;20074;-68
2022/12/02 12:44:58;;;;;;;68.68;36.15;;;2.70;99.90;;;;;;5090088;28;20032;-65
2022/12/02 12:47:24;;;;;;;71.53;37.67;;;2.70;99.90;;;;;;5093431;28;20044;-65
2022/12/02 12:49:49;;;;;;;74.85;40.50;;;2.70;99.90;;;;;;5089152;28;20380;-65